sensor_id;sensor_type;location;lat;lon;timestamp;P1;durP1;ratioP1;P2;durP2;ratioP2
42226;SDS011;27892;52.378;13.122;2024-02-14T00:02:20;3.93;;;3.50;;
42226;SDS011;27892;52.378;13.122;2024-02-14T00:04:46;4.47;;;3.60;;
42226;SDS011;27892;52.378;13.122;2024-02-14T00:07:13;3.90;;;3.50;;
42226;SDS011;27892;52.378;13.122;2024-02-14T00:09:40;4.50;;;4.10;;
42226;SDS011;27892;52.378;13.122;2024-02-14T00:12:06;3.60;;;3.30;;
42226;SDS011;27892;52.378;13.122;2024-02-14T00:14:32;3.87;;;3.57;;
42226;SDS011;27892;52.378;13.122;2024-02-14T00:16:57;3.70;;;3.37;;
42226;SDS011;27892;52.378;13.122;2024-02-14T00:19:24;3.53;;;3.23;;
42226;SDS011;27892;52.378;13.122;2024-02-14T00:21:50;4.33;;;3.93;;
42226;SDS011;27892;52.378;13.122;2024-02-14T00:24:15;4.40;;;4.00;;
42226;SDS011;27892;52.378;13.122;2024-02-14T00:26:44;4.90;;;3.80;;
42226;SDS011;27892;52.378;13.122;2024-02-14T00:29:11;4.00;;;3.60;;
42226;SDS011;27892;52.378;13.122;2024-02-14T00:31:37;3.57;;;3.27;;
42226;SDS011;27892;52.378;13.122;2024-02-14T00:34:03;3.37;;;3.00;;
42226;SDS011;27892;52.378;13.122;2024-02-14T00:36:29;3.43;;;3.13;;
42226;SDS011;27892;52.378;13.122;2024-02-14T00:38:55;3.53;;;3.10;;
42226;SDS011;27892;52.378;13.122;2024-02-14T00:41:21;3.67;;;3.33;;
42226;SDS011;27892;52.378;13.122;2024-02-14T00:43:46;3.60;;;3.30;;
42226;SDS011;27892;52.378;13.122;2024-02-14T00:46:18;4.57;;;3.90;;
42226;SDS011;27892;52.378;13.122;2024-02-14T00:48:44;6.10;;;4.23;;
42226;SDS011;27892;52.378;13.122;2024-02-14T00:51:10;7.23;;;4.63;;
42226;SDS011;27892;52.378;13.122;2024-02-14T00:53:36;4.93;;;4.00;;
42226;SDS011;27892;52.378;13.122;2024-02-14T00:56:02;4.03;;;3.57;;
42226;SDS011;27892;52.378;13.122;2024-02-14T00:58:27;4.30;;;3.90;;
42226;SDS011;27892;52.378;13.122;2024-02-14T01:00:53;3.67;;;3.37;;
42226;SDS011;27892;52.378;13.122;2024-02-14T01:03:19;4.17;;;3.77;;
42226;SDS011;27892;52.378;13.122;2024-02-14T01:05:44;5.30;;;3.63;;
42226;SDS011;27892;52.378;13.122;2024-02-14T01:08:10;4.30;;;3.90;;
42226;SDS011;27892;52.378;13.122;2024-02-14T01:10:36;4.10;;;3.70;;
42226;SDS011;27892;52.378;13.122;2024-02-14T01:13:01;4.23;;;3.83;;
42226;SDS011;27892;52.378;13.122;2024-02-14T01:15:27;5.17;;;4.57;;
42226;SDS011;27892;52.378;13.122;2024-02-14T01:17:53;5.37;;;4.87;;
42226;SDS011;27892;52.378;13.122;2024-02-14T01:20:18;5.33;;;4.43;;
42226;SDS011;27892;52.378;13.122;2024-02-14T01:22:45;4.60;;;4.13;;
42226;SDS011;27892;52.378;13.122;2024-02-14T01:25:11;4.30;;;3.90;;
42226;SDS011;27892;52.378;13.122;2024-02-14T01:27:37;4.20;;;3.80;;
42226;SDS011;27892;52.378;13.122;2024-02-14T01:30:03;3.60;;;3.30;;
42226;SDS011;27892;52.378;13.122;2024-02-14T01:32:30;3.77;;;3.30;;
42226;SDS011;27892;52.378;13.122;2024-02-14T01:34:56;3.57;;;3.27;;
42226;SDS011;27892;52.378;13.122;2024-02-14T01:37:22;3.63;;;3.33;;
42226;SDS011;27892;52.378;13.122;2024-02-14T01:39:48;3.70;;;3.40;;
42226;SDS011;27892;52.378;13.122;2024-02-14T01:42:13;3.57;;;3.27;;
42226;SDS011;27892;52.378;13.122;2024-02-14T01:44:39;3.70;;;3.30;;
42226;SDS011;27892;52.378;13.122;2024-02-14T01:47:05;3.40;;;3.10;;
42226;SDS011;27892;52.378;13.122;2024-02-14T01:49:32;4.00;;;3.60;;
42226;SDS011;27892;52.378;13.122;2024-02-14T01:51:59;4.93;;;4.47;;
42226;SDS011;27892;52.378;13.122;2024-02-14T01:54:28;5.23;;;4.40;;
42226;SDS011;27892;52.378;13.122;2024-02-14T01:56:55;5.10;;;4.60;;
42226;SDS011;27892;52.378;13.122;2024-02-14T01:59:23;5.47;;;4.97;;
42226;SDS011;27892;52.378;13.122;2024-02-14T02:01:49;6.43;;;5.20;;
42226;SDS011;27892;52.378;13.122;2024-02-14T02:04:17;5.60;;;4.53;;
42226;SDS011;27892;52.378;13.122;2024-02-14T02:06:43;6.67;;;4.87;;
42226;SDS011;27892;52.378;13.122;2024-02-14T02:09:09;6.17;;;4.47;;
42226;SDS011;27892;52.378;13.122;2024-02-14T02:11:50;5.47;;;4.40;;
42226;SDS011;27892;52.378;13.122;2024-02-14T02:14:21;7.40;;;4.97;;
42226;SDS011;27892;52.378;13.122;2024-02-14T02:16:47;6.73;;;5.47;;
42226;SDS011;27892;52.378;13.122;2024-02-14T02:19:13;5.97;;;5.00;;
42226;SDS011;27892;52.378;13.122;2024-02-14T02:21:41;5.13;;;4.50;;
42226;SDS011;27892;52.378;13.122;2024-02-14T02:24:11;6.73;;;5.17;;
42226;SDS011;27892;52.378;13.122;2024-02-14T02:26:37;6.97;;;5.33;;
42226;SDS011;27892;52.378;13.122;2024-02-14T02:29:02;7.37;;;5.10;;
42226;SDS011;27892;52.378;13.122;2024-02-14T02:31:30;5.67;;;5.07;;
42226;SDS011;27892;52.378;13.122;2024-02-14T02:33:55;5.80;;;5.03;;
42226;SDS011;27892;52.378;13.122;2024-02-14T02:36:21;7.97;;;5.60;;
42226;SDS011;27892;52.378;13.122;2024-02-14T02:38:49;5.93;;;4.83;;
42226;SDS011;27892;52.378;13.122;2024-02-14T02:41:15;7.50;;;5.50;;
42226;SDS011;27892;52.378;13.122;2024-02-14T02:43:41;6.17;;;4.97;;
42226;SDS011;27892;52.378;13.122;2024-02-14T02:46:08;6.53;;;5.27;;
42226;SDS011;27892;52.378;13.122;2024-02-14T02:48:34;8.90;;;5.40;;
42226;SDS011;27892;52.378;13.122;2024-02-14T02:51:01;7.70;;;5.33;;
42226;SDS011;27892;52.378;13.122;2024-02-14T02:53:26;5.80;;;5.13;;
42226;SDS011;27892;52.378;13.122;2024-02-14T02:55:52;6.03;;;4.97;;
42226;SDS011;27892;52.378;13.122;2024-02-14T02:58:19;6.33;;;5.43;;
42226;SDS011;27892;52.378;13.122;2024-02-14T03:00:46;5.83;;;4.93;;
42226;SDS011;27892;52.378;13.122;2024-02-14T03:03:14;7.23;;;5.50;;
42226;SDS011;27892;52.378;13.122;2024-02-14T03:05:41;6.87;;;5.30;;
42226;SDS011;27892;52.378;13.122;2024-02-14T03:08:09;6.13;;;5.40;;
42226;SDS011;27892;52.378;13.122;2024-02-14T03:10:39;5.97;;;5.20;;
42226;SDS011;27892;52.378;13.122;2024-02-14T03:13:05;6.27;;;5.37;;
42226;SDS011;27892;52.378;13.122;2024-02-14T03:15:33;6.07;;;5.17;;
42226;SDS011;27892;52.378;13.122;2024-02-14T03:18:00;6.37;;;5.20;;
42226;SDS011;27892;52.378;13.122;2024-02-14T03:20:26;6.17;;;5.57;;
42226;SDS011;27892;52.378;13.122;2024-02-14T03:22:54;5.70;;;4.80;;
42226;SDS011;27892;52.378;13.122;2024-02-14T03:25:20;7.43;;;5.07;;
42226;SDS011;27892;52.378;13.122;2024-02-14T03:27:46;7.67;;;4.83;;
42226;SDS011;27892;52.378;13.122;2024-02-14T03:30:17;7.10;;;5.70;;
42226;SDS011;27892;52.378;13.122;2024-02-14T03:32:43;6.97;;;5.73;;
42226;SDS011;27892;52.378;13.122;2024-02-14T03:35:10;8.80;;;6.10;;
42226;SDS011;27892;52.378;13.122;2024-02-14T03:37:38;7.23;;;5.40;;
42226;SDS011;27892;52.378;13.122;2024-02-14T03:40:05;5.50;;;4.80;;
42226;SDS011;27892;52.378;13.122;2024-02-14T03:42:32;5.03;;;4.53;;
42226;SDS011;27892;52.378;13.122;2024-02-14T03:44:58;5.23;;;4.73;;
42226;SDS011;27892;52.378;13.122;2024-02-14T03:47:30;5.53;;;4.90;;
42226;SDS011;27892;52.378;13.122;2024-02-14T03:49:57;4.63;;;4.20;;
42226;SDS011;27892;52.378;13.122;2024-02-14T03:52:23;4.50;;;4.10;;
42226;SDS011;27892;52.378;13.122;2024-02-14T03:54:49;5.00;;;4.23;;
42226;SDS011;27892;52.378;13.122;2024-02-14T03:57:16;4.07;;;3.77;;
42226;SDS011;27892;52.378;13.122;2024-02-14T03:59:44;5.17;;;4.57;;
42226;SDS011;27892;52.378;13.122;2024-02-14T04:02:11;6.87;;;5.30;;
42226;SDS011;27892;52.378;13.122;2024-02-14T04:04:37;6.60;;;5.30;;
42226;SDS011;27892;52.378;13.122;2024-02-14T04:07:04;5.53;;;4.93;;
42226;SDS011;27892;52.378;13.122;2024-02-14T04:09:32;6.77;;;5.80;;
42226;SDS011;27892;52.378;13.122;2024-02-14T04:11:58;8.63;;;6.10;;
42226;SDS011;27892;52.378;13.122;2024-02-14T04:14:24;6.33;;;5.37;;
42226;SDS011;27892;52.378;13.122;2024-02-14T04:16:50;6.23;;;5.07;;
42226;SDS011;27892;52.378;13.122;2024-02-14T04:19:15;6.17;;;5.40;;
42226;SDS011;27892;52.378;13.122;2024-02-14T04:21:42;7.07;;;5.70;;
42226;SDS011;27892;52.378;13.122;2024-02-14T04:24:08;5.27;;;4.77;;
42226;SDS011;27892;52.378;13.122;2024-02-14T04:26:34;5.10;;;4.60;;
42226;SDS011;27892;52.378;13.122;2024-02-14T04:29:00;5.03;;;4.57;;
42226;SDS011;27892;52.378;13.122;2024-02-14T04:31:26;6.83;;;5.10;;
42226;SDS011;27892;52.378;13.122;2024-02-14T04:33:52;5.70;;;4.47;;
42226;SDS011;27892;52.378;13.122;2024-02-14T04:36:19;6.30;;;5.53;;
42226;SDS011;27892;52.378;13.122;2024-02-14T04:38:46;7.13;;;5.77;;
42226;SDS011;27892;52.378;13.122;2024-02-14T04:41:13;5.53;;;5.00;;
42226;SDS011;27892;52.378;13.122;2024-02-14T04:43:39;5.57;;;5.00;;
42226;SDS011;27892;52.378;13.122;2024-02-14T04:46:05;4.57;;;4.17;;
42226;SDS011;27892;52.378;13.122;2024-02-14T04:48:35;5.83;;;4.73;;
42226;SDS011;27892;52.378;13.122;2024-02-14T04:51:02;5.17;;;4.67;;
42226;SDS011;27892;52.378;13.122;2024-02-14T04:53:28;4.93;;;4.43;;
42226;SDS011;27892;52.378;13.122;2024-02-14T04:55:53;5.43;;;4.30;;
42226;SDS011;27892;52.378;13.122;2024-02-14T04:58:19;7.00;;;5.33;;
42226;SDS011;27892;52.378;13.122;2024-02-14T05:00:45;5.80;;;5.00;;
42226;SDS011;27892;52.378;13.122;2024-02-14T05:03:11;7.67;;;5.97;;
42226;SDS011;27892;52.378;13.122;2024-02-14T05:05:37;6.90;;;4.90;;
42226;SDS011;27892;52.378;13.122;2024-02-14T05:08:03;7.17;;;5.60;;
42226;SDS011;27892;52.378;13.122;2024-02-14T05:10:30;6.37;;;5.70;;
42226;SDS011;27892;52.378;13.122;2024-02-14T05:12:57;7.23;;;5.90;;
42226;SDS011;27892;52.378;13.122;2024-02-14T05:15:22;9.37;;;6.73;;
42226;SDS011;27892;52.378;13.122;2024-02-14T05:17:48;7.53;;;6.10;;
42226;SDS011;27892;52.378;13.122;2024-02-14T05:20:15;7.30;;;5.50;;
42226;SDS011;27892;52.378;13.122;2024-02-14T05:22:41;8.23;;;6.27;;
42226;SDS011;27892;52.378;13.122;2024-02-14T05:25:07;9.37;;;5.70;;
42226;SDS011;27892;52.378;13.122;2024-02-14T05:27:34;7.47;;;5.77;;
42226;SDS011;27892;52.378;13.122;2024-02-14T05:30:00;5.53;;;4.80;;
42226;SDS011;27892;52.378;13.122;2024-02-14T05:32:30;7.50;;;5.57;;
42226;SDS011;27892;52.378;13.122;2024-02-14T05:34:59;7.00;;;5.40;;
42226;SDS011;27892;52.378;13.122;2024-02-14T05:37:25;7.43;;;5.80;;
42226;SDS011;27892;52.378;13.122;2024-02-14T05:39:53;8.37;;;5.80;;
42226;SDS011;27892;52.378;13.122;2024-02-14T05:42:19;8.90;;;6.30;;
42226;SDS011;27892;52.378;13.122;2024-02-14T05:44:46;9.30;;;6.60;;
42226;SDS011;27892;52.378;13.122;2024-02-14T05:47:11;7.43;;;6.03;;
42226;SDS011;27892;52.378;13.122;2024-02-14T05:49:40;7.07;;;5.57;;
42226;SDS011;27892;52.378;13.122;2024-02-14T05:52:07;8.63;;;6.47;;
42226;SDS011;27892;52.378;13.122;2024-02-14T05:54:33;9.30;;;6.70;;
42226;SDS011;27892;52.378;13.122;2024-02-14T05:56:59;8.30;;;6.00;;
42226;SDS011;27892;52.378;13.122;2024-02-14T05:59:25;6.93;;;5.47;;
42226;SDS011;27892;52.378;13.122;2024-02-14T06:01:50;7.43;;;5.87;;
42226;SDS011;27892;52.378;13.122;2024-02-14T06:04:16;9.17;;;6.23;;
42226;SDS011;27892;52.378;13.122;2024-02-14T06:06:42;7.13;;;5.37;;
42226;SDS011;27892;52.378;13.122;2024-02-14T06:09:08;7.37;;;5.70;;
42226;SDS011;27892;52.378;13.122;2024-02-14T06:11:36;7.30;;;5.97;;
42226;SDS011;27892;52.378;13.122;2024-02-14T06:14:07;8.90;;;5.97;;
42226;SDS011;27892;52.378;13.122;2024-02-14T06:16:33;7.43;;;6.00;;
42226;SDS011;27892;52.378;13.122;2024-02-14T06:19:00;7.63;;;5.50;;
42226;SDS011;27892;52.378;13.122;2024-02-14T06:21:26;7.67;;;6.07;;
42226;SDS011;27892;52.378;13.122;2024-02-14T06:23:52;6.23;;;5.23;;
42226;SDS011;27892;52.378;13.122;2024-02-14T06:26:18;8.73;;;6.07;;
42226;SDS011;27892;52.378;13.122;2024-02-14T06:28:44;8.23;;;6.27;;
42226;SDS011;27892;52.378;13.122;2024-02-14T06:31:10;8.17;;;5.73;;
42226;SDS011;27892;52.378;13.122;2024-02-14T06:33:36;9.43;;;6.20;;
42226;SDS011;27892;52.378;13.122;2024-02-14T06:36:02;6.37;;;5.67;;
42226;SDS011;27892;52.378;13.122;2024-02-14T06:38:28;7.57;;;5.47;;
42226;SDS011;27892;52.378;13.122;2024-02-14T06:40:55;7.70;;;5.80;;
42226;SDS011;27892;52.378;13.122;2024-02-14T06:43:21;9.00;;;6.50;;
42226;SDS011;27892;52.378;13.122;2024-02-14T06:45:47;6.07;;;5.33;;
42226;SDS011;27892;52.378;13.122;2024-02-14T06:48:13;5.73;;;4.40;;
42226;SDS011;27892;52.378;13.122;2024-02-14T06:50:38;4.63;;;4.23;;
42226;SDS011;27892;52.378;13.122;2024-02-14T06:53:04;14.73;;;9.27;;
42226;SDS011;27892;52.378;13.122;2024-02-14T06:55:33;11.87;;;7.90;;
42226;SDS011;27892;52.378;13.122;2024-02-14T06:57:59;14.77;;;10.20;;
42226;SDS011;27892;52.378;13.122;2024-02-14T07:00:25;10.13;;;7.40;;
42226;SDS011;27892;52.378;13.122;2024-02-14T07:02:50;7.93;;;5.53;;
42226;SDS011;27892;52.378;13.122;2024-02-14T07:05:16;7.27;;;5.20;;
42226;SDS011;27892;52.378;13.122;2024-02-14T07:07:42;5.80;;;4.67;;
42226;SDS011;27892;52.378;13.122;2024-02-14T07:10:08;6.87;;;5.40;;
42226;SDS011;27892;52.378;13.122;2024-02-14T07:12:34;7.80;;;5.47;;
42226;SDS011;27892;52.378;13.122;2024-02-14T07:15:01;6.17;;;4.97;;
42226;SDS011;27892;52.378;13.122;2024-02-14T07:17:29;5.37;;;4.43;;
42226;SDS011;27892;52.378;13.122;2024-02-14T07:19:55;7.87;;;4.90;;
42226;SDS011;27892;52.378;13.122;2024-02-14T07:22:21;6.13;;;4.93;;
42226;SDS011;27892;52.378;13.122;2024-02-14T07:24:46;5.33;;;4.53;;
42226;SDS011;27892;52.378;13.122;2024-02-14T07:27:13;5.13;;;4.63;;
42226;SDS011;27892;52.378;13.122;2024-02-14T07:29:39;5.13;;;4.30;;
42226;SDS011;27892;52.378;13.122;2024-02-14T07:32:05;4.03;;;3.60;;
42226;SDS011;27892;52.378;13.122;2024-02-14T07:34:31;4.43;;;3.80;;
42226;SDS011;27892;52.378;13.122;2024-02-14T07:36:57;3.80;;;3.40;;
42226;SDS011;27892;52.378;13.122;2024-02-14T07:39:23;3.83;;;3.43;;
42226;SDS011;27892;52.378;13.122;2024-02-14T07:41:50;3.93;;;3.53;;
42226;SDS011;27892;52.378;13.122;2024-02-14T07:44:16;4.73;;;3.87;;
42226;SDS011;27892;52.378;13.122;2024-02-14T07:46:42;4.97;;;3.60;;
42226;SDS011;27892;52.378;13.122;2024-02-14T07:49:08;3.63;;;3.00;;
42226;SDS011;27892;52.378;13.122;2024-02-14T07:51:35;3.40;;;3.10;;
42226;SDS011;27892;52.378;13.122;2024-02-14T07:54:05;4.93;;;3.50;;
42226;SDS011;27892;52.378;13.122;2024-02-14T07:56:31;3.83;;;3.17;;
42226;SDS011;27892;52.378;13.122;2024-02-14T07:58:57;3.63;;;3.10;;
42226;SDS011;27892;52.378;13.122;2024-02-14T08:01:25;4.70;;;3.47;;
42226;SDS011;27892;52.378;13.122;2024-02-14T08:03:51;3.90;;;3.50;;
42226;SDS011;27892;52.378;13.122;2024-02-14T08:06:17;3.90;;;3.50;;
42226;SDS011;27892;52.378;13.122;2024-02-14T08:08:42;4.03;;;3.63;;
42226;SDS011;27892;52.378;13.122;2024-02-14T08:11:11;3.33;;;3.03;;
42226;SDS011;27892;52.378;13.122;2024-02-14T08:13:36;3.20;;;2.90;;
42226;SDS011;27892;52.378;13.122;2024-02-14T08:16:05;4.33;;;3.50;;
42226;SDS011;27892;52.378;13.122;2024-02-14T08:18:31;4.83;;;3.83;;
42226;SDS011;27892;52.378;13.122;2024-02-14T08:20:57;3.97;;;3.47;;
42226;SDS011;27892;52.378;13.122;2024-02-14T08:23:23;4.60;;;3.27;;
42226;SDS011;27892;52.378;13.122;2024-02-14T08:25:49;4.03;;;3.23;;
42226;SDS011;27892;52.378;13.122;2024-02-14T08:28:15;3.57;;;3.23;;
42226;SDS011;27892;52.378;13.122;2024-02-14T08:30:43;3.30;;;2.70;;
42226;SDS011;27892;52.378;13.122;2024-02-14T08:33:09;3.83;;;3.00;;
42226;SDS011;27892;52.378;13.122;2024-02-14T08:35:35;3.30;;;3.00;;
42226;SDS011;27892;52.378;13.122;2024-02-14T08:38:01;3.87;;;3.30;;
42226;SDS011;27892;52.378;13.122;2024-02-14T08:40:27;5.50;;;3.53;;
42226;SDS011;27892;52.378;13.122;2024-02-14T08:42:53;3.70;;;3.40;;
42226;SDS011;27892;52.378;13.122;2024-02-14T08:45:18;4.30;;;3.20;;
42226;SDS011;27892;52.378;13.122;2024-02-14T08:47:44;3.53;;;3.13;;
42226;SDS011;27892;52.378;13.122;2024-02-14T08:50:10;3.40;;;2.97;;
42226;SDS011;27892;52.378;13.122;2024-02-14T08:52:38;3.73;;;3.03;;
42226;SDS011;27892;52.378;13.122;2024-02-14T08:55:05;2.70;;;2.50;;
42226;SDS011;27892;52.378;13.122;2024-02-14T08:57:33;2.77;;;2.57;;
42226;SDS011;27892;52.378;13.122;2024-02-14T08:59:59;2.93;;;2.73;;
42226;SDS011;27892;52.378;13.122;2024-02-14T09:02:25;3.37;;;3.07;;
42226;SDS011;27892;52.378;13.122;2024-02-14T09:04:51;3.47;;;2.90;;
42226;SDS011;27892;52.378;13.122;2024-02-14T09:07:16;3.10;;;2.90;;
42226;SDS011;27892;52.378;13.122;2024-02-14T09:09:45;3.47;;;3.17;;
42226;SDS011;27892;52.378;13.122;2024-02-14T09:12:11;2.83;;;2.63;;
42226;SDS011;27892;52.378;13.122;2024-02-14T09:14:36;3.00;;;2.70;;
42226;SDS011;27892;52.378;13.122;2024-02-14T09:17:02;3.23;;;2.93;;
42226;SDS011;27892;52.378;13.122;2024-02-14T09:19:28;6.80;;;3.77;;
42226;SDS011;27892;52.378;13.122;2024-02-14T09:21:55;6.40;;;3.50;;
42226;SDS011;27892;52.378;13.122;2024-02-14T09:24:20;3.57;;;3.20;;
42226;SDS011;27892;52.378;13.122;2024-02-14T09:26:46;4.87;;;3.00;;
42226;SDS011;27892;52.378;13.122;2024-02-14T09:29:11;3.77;;;3.07;;
42226;SDS011;27892;52.378;13.122;2024-02-14T09:31:37;3.23;;;2.93;;
42226;SDS011;27892;52.378;13.122;2024-02-14T09:34:03;6.00;;;4.43;;
42226;SDS011;27892;52.378;13.122;2024-02-14T09:36:29;24.00;;;14.47;;
42226;SDS011;27892;52.378;13.122;2024-02-14T09:38:55;10.73;;;6.40;;
42226;SDS011;27892;52.378;13.122;2024-02-14T09:44:03;5.50;;;3.40;;
42226;SDS011;27892;52.378;13.122;2024-02-14T09:46:28;3.80;;;3.13;;
42226;SDS011;27892;52.378;13.122;2024-02-14T09:48:58;3.53;;;3.00;;
42226;SDS011;27892;52.378;13.122;2024-02-14T09:51:27;3.17;;;2.87;;
42226;SDS011;27892;52.378;13.122;2024-02-14T09:53:54;3.27;;;2.97;;
42226;SDS011;27892;52.378;13.122;2024-02-14T09:56:21;3.43;;;2.77;;
42226;SDS011;27892;52.378;13.122;2024-02-14T09:58:50;3.43;;;3.13;;
42226;SDS011;27892;52.378;13.122;2024-02-14T10:01:21;3.07;;;2.87;;
42226;SDS011;27892;52.378;13.122;2024-02-14T10:03:50;3.13;;;2.83;;
42226;SDS011;27892;52.378;13.122;2024-02-14T10:06:17;3.10;;;2.80;;
42226;SDS011;27892;52.378;13.122;2024-02-14T10:08:46;2.90;;;2.60;;
42226;SDS011;27892;52.378;13.122;2024-02-14T10:11:12;3.17;;;2.63;;
42226;SDS011;27892;52.378;13.122;2024-02-14T10:13:41;3.67;;;3.00;;
42226;SDS011;27892;52.378;13.122;2024-02-14T10:16:07;2.50;;;2.30;;
42226;SDS011;27892;52.378;13.122;2024-02-14T10:18:33;3.10;;;2.80;;
42226;SDS011;27892;52.378;13.122;2024-02-14T10:20:59;3.90;;;3.07;;
42226;SDS011;27892;52.378;13.122;2024-02-14T10:23:26;3.10;;;2.90;;
42226;SDS011;27892;52.378;13.122;2024-02-14T10:25:52;2.87;;;2.50;;
42226;SDS011;27892;52.378;13.122;2024-02-14T10:28:20;3.07;;;2.80;;
42226;SDS011;27892;52.378;13.122;2024-02-14T10:30:47;4.07;;;2.93;;
42226;SDS011;27892;52.378;13.122;2024-02-14T10:33:14;2.70;;;2.50;;
42226;SDS011;27892;52.378;13.122;2024-02-14T10:35:46;3.93;;;2.80;;
42226;SDS011;27892;52.378;13.122;2024-02-14T10:38:14;3.40;;;2.60;;
42226;SDS011;27892;52.378;13.122;2024-02-14T10:40:43;2.70;;;2.47;;
42226;SDS011;27892;52.378;13.122;2024-02-14T10:43:12;2.97;;;2.77;;
42226;SDS011;27892;52.378;13.122;2024-02-14T10:45:38;3.77;;;2.90;;
42226;SDS011;27892;52.378;13.122;2024-02-14T10:48:04;3.10;;;2.73;;
42226;SDS011;27892;52.378;13.122;2024-02-14T10:50:34;3.73;;;2.80;;
42226;SDS011;27892;52.378;13.122;2024-02-14T10:53:04;2.70;;;2.50;;
42226;SDS011;27892;52.378;13.122;2024-02-14T10:55:31;3.17;;;2.93;;
42226;SDS011;27892;52.378;13.122;2024-02-14T10:57:58;2.80;;;2.50;;
42226;SDS011;27892;52.378;13.122;2024-02-14T11:00:25;3.50;;;2.90;;
42226;SDS011;27892;52.378;13.122;2024-02-14T11:02:51;3.03;;;2.67;;
42226;SDS011;27892;52.378;13.122;2024-02-14T11:05:19;3.43;;;2.70;;
42226;SDS011;27892;52.378;13.122;2024-02-14T11:07:49;3.83;;;2.87;;
42226;SDS011;27892;52.378;13.122;2024-02-14T11:10:18;2.87;;;2.60;;
42226;SDS011;27892;52.378;13.122;2024-02-14T11:12:45;3.27;;;2.50;;
42226;SDS011;27892;52.378;13.122;2024-02-14T11:17:46;4.27;;;2.73;;
42226;SDS011;27892;52.378;13.122;2024-02-14T11:20:21;3.10;;;2.47;;
42226;SDS011;27892;52.378;13.122;2024-02-14T11:22:56;3.10;;;2.80;;
42226;SDS011;27892;52.378;13.122;2024-02-14T11:25:31;2.40;;;2.20;;
42226;SDS011;27892;52.378;13.122;2024-02-14T11:28:16;4.03;;;2.73;;
42226;SDS011;27892;52.378;13.122;2024-02-14T11:30:46;5.07;;;2.80;;
42226;SDS011;27892;52.378;13.122;2024-02-14T11:33:16;3.67;;;3.10;;
42226;SDS011;27892;52.378;13.122;2024-02-14T11:35:45;4.93;;;3.40;;
42226;SDS011;27892;52.378;13.122;2024-02-14T11:38:12;3.60;;;2.90;;
42226;SDS011;27892;52.378;13.122;2024-02-14T11:40:39;4.53;;;3.40;;
42226;SDS011;27892;52.378;13.122;2024-02-14T11:43:10;4.63;;;3.40;;
42226;SDS011;27892;52.378;13.122;2024-02-14T11:45:37;4.13;;;3.00;;
42226;SDS011;27892;52.378;13.122;2024-02-14T11:48:07;3.33;;;3.00;;
42226;SDS011;27892;52.378;13.122;2024-02-14T11:50:39;3.23;;;2.80;;
42226;SDS011;27892;52.378;13.122;2024-02-14T11:53:06;3.47;;;3.17;;
42226;SDS011;27892;52.378;13.122;2024-02-14T11:55:35;2.90;;;2.67;;
42226;SDS011;27892;52.378;13.122;2024-02-14T11:58:02;5.13;;;4.00;;
42226;SDS011;27892;52.378;13.122;2024-02-14T12:00:32;4.53;;;4.07;;
42226;SDS011;27892;52.378;13.122;2024-02-14T12:03:00;4.73;;;3.50;;
42226;SDS011;27892;52.378;13.122;2024-02-14T12:05:26;3.50;;;2.90;;
42226;SDS011;27892;52.378;13.122;2024-02-14T12:07:52;3.47;;;2.93;;
42226;SDS011;27892;52.378;13.122;2024-02-14T12:10:19;4.87;;;3.23;;
42226;SDS011;27892;52.378;13.122;2024-02-14T12:12:47;3.53;;;2.50;;
42226;SDS011;27892;52.378;13.122;2024-02-14T12:15:13;4.73;;;3.13;;
42226;SDS011;27892;52.378;13.122;2024-02-14T12:17:41;4.27;;;3.10;;
42226;SDS011;27892;52.378;13.122;2024-02-14T12:20:10;3.30;;;3.00;;
42226;SDS011;27892;52.378;13.122;2024-02-14T12:22:39;2.97;;;2.63;;
42226;SDS011;27892;52.378;13.122;2024-02-14T12:25:06;2.60;;;2.40;;
42226;SDS011;27892;52.378;13.122;2024-02-14T12:27:36;2.87;;;2.67;;
42226;SDS011;27892;52.378;13.122;2024-02-14T12:30:08;2.70;;;2.50;;
42226;SDS011;27892;52.378;13.122;2024-02-14T12:32:35;2.70;;;2.50;;
42226;SDS011;27892;52.378;13.122;2024-02-14T12:35:00;2.70;;;2.50;;
42226;SDS011;27892;52.378;13.122;2024-02-14T12:37:26;3.43;;;2.70;;
42226;SDS011;27892;52.378;13.122;2024-02-14T12:39:52;2.97;;;2.63;;
42226;SDS011;27892;52.378;13.122;2024-02-14T12:42:18;2.63;;;2.43;;
42226;SDS011;27892;52.378;13.122;2024-02-14T12:44:50;3.13;;;2.57;;
42226;SDS011;27892;52.378;13.122;2024-02-14T12:47:17;3.77;;;2.80;;
42226;SDS011;27892;52.378;13.122;2024-02-14T12:49:43;3.80;;;2.57;;
42226;SDS011;27892;52.378;13.122;2024-02-14T12:52:10;2.40;;;2.20;;
42226;SDS011;27892;52.378;13.122;2024-02-14T12:54:36;3.03;;;2.40;;
42226;SDS011;27892;52.378;13.122;2024-02-14T12:57:02;3.57;;;2.40;;
42226;SDS011;27892;52.378;13.122;2024-02-14T12:59:27;2.50;;;2.30;;
42226;SDS011;27892;52.378;13.122;2024-02-14T13:01:53;2.30;;;2.10;;
42226;SDS011;27892;52.378;13.122;2024-02-14T13:04:19;2.40;;;1.90;;
42226;SDS011;27892;52.378;13.122;2024-02-14T13:06:45;2.47;;;2.27;;
42226;SDS011;27892;52.378;13.122;2024-02-14T13:09:12;2.37;;;2.20;;
42226;SDS011;27892;52.378;13.122;2024-02-14T13:11:39;3.07;;;2.30;;
42226;SDS011;27892;52.378;13.122;2024-02-14T13:14:07;2.40;;;2.20;;
42226;SDS011;27892;52.378;13.122;2024-02-14T13:16:34;2.30;;;2.10;;
42226;SDS011;27892;52.378;13.122;2024-02-14T13:19:00;3.80;;;2.37;;
42226;SDS011;27892;52.378;13.122;2024-02-14T13:21:27;3.63;;;2.77;;
42226;SDS011;27892;52.378;13.122;2024-02-14T13:23:54;2.50;;;2.30;;
42226;SDS011;27892;52.378;13.122;2024-02-14T13:26:22;2.70;;;2.23;;
42226;SDS011;27892;52.378;13.122;2024-02-14T13:28:48;3.47;;;2.77;;
42226;SDS011;27892;52.378;13.122;2024-02-14T13:31:15;3.43;;;2.40;;
42226;SDS011;27892;52.378;13.122;2024-02-14T13:33:41;2.97;;;2.63;;
42226;SDS011;27892;52.378;13.122;2024-02-14T13:36:06;2.50;;;2.30;;
42226;SDS011;27892;52.378;13.122;2024-02-14T13:38:32;2.40;;;2.20;;
42226;SDS011;27892;52.378;13.122;2024-02-14T13:40:58;2.70;;;2.50;;
42226;SDS011;27892;52.378;13.122;2024-02-14T13:43:24;2.10;;;2.00;;
42226;SDS011;27892;52.378;13.122;2024-02-14T13:45:50;2.00;;;1.90;;
42226;SDS011;27892;52.378;13.122;2024-02-14T13:48:16;2.13;;;2.03;;
42226;SDS011;27892;52.378;13.122;2024-02-14T13:50:42;2.77;;;2.30;;
42226;SDS011;27892;52.378;13.122;2024-02-14T13:53:08;2.70;;;2.50;;
42226;SDS011;27892;52.378;13.122;2024-02-14T13:55:34;2.53;;;2.33;;
42226;SDS011;27892;52.378;13.122;2024-02-14T13:57:59;2.90;;;2.30;;
42226;SDS011;27892;52.378;13.122;2024-02-14T14:00:25;2.53;;;2.33;;
42226;SDS011;27892;52.378;13.122;2024-02-14T14:02:51;2.73;;;2.30;;
42226;SDS011;27892;52.378;13.122;2024-02-14T14:05:16;2.23;;;2.00;;
42226;SDS011;27892;52.378;13.122;2024-02-14T14:07:42;3.20;;;2.30;;
42226;SDS011;27892;52.378;13.122;2024-02-14T14:10:08;2.50;;;2.30;;
42226;SDS011;27892;52.378;13.122;2024-02-14T14:12:34;2.67;;;2.43;;
42226;SDS011;27892;52.378;13.122;2024-02-14T14:15:00;2.40;;;2.20;;
42226;SDS011;27892;52.378;13.122;2024-02-14T14:17:26;2.00;;;1.90;;
42226;SDS011;27892;52.378;13.122;2024-02-14T14:19:52;2.10;;;2.00;;
42226;SDS011;27892;52.378;13.122;2024-02-14T14:22:19;2.33;;;2.10;;
42226;SDS011;27892;52.378;13.122;2024-02-14T14:24:45;3.30;;;2.63;;
42226;SDS011;27892;52.378;13.122;2024-02-14T14:27:10;2.33;;;1.80;;
42226;SDS011;27892;52.378;13.122;2024-02-14T14:29:40;3.03;;;2.30;;
42226;SDS011;27892;52.378;13.122;2024-02-14T14:32:09;3.70;;;2.77;;
42226;SDS011;27892;52.378;13.122;2024-02-14T14:34:35;4.10;;;3.70;;
42226;SDS011;27892;52.378;13.122;2024-02-14T14:37:04;4.13;;;2.90;;